Airfield :
LOGIN :

Register | Disclaimer

   EN    FR    IT 

 










Legend :    VFR   Marginal VFR   IFR   Intensive IFR   Very Intensive IFR
Visi :
Ceiling :
>= 8 km
>= 3000ft
5 to 8 km
1000 to 3000 ft
1500m to 5 km
500 to 1000 ft
800 to 1500m
200 to 500 ft
< 800m
< 200 ft
Symbols :   Thunderstorms  Fog  Heavy snow  Heavy precipitations  Wind > 20 kt
SIGMETs :     Misc.  Thunderstorms  Icing  Turbulence  Mountain Waves  Volcanic Ashes






- Airport Elevation : 1299 ft


EDTY - Adolf Würth

CURRENT METAR :
  • 270820Z 21006KT 160V260 9999 FEW030 02/M01 Q1006

EXPIRED METARs :
  • 270750Z 21005KT 130V250 9999 FEW027 BKN032 01/M01 Q1007
  • 270720Z 22008KT 190V250 9999 -SN FEW011 SCT033 01/M01 Q1007
  • 270650Z 23008KT 9999 BKN012 BKN020 BKN026 01/M01 Q1007
  • 270620Z 23007KT 9999 SCT012 BKN015 BKN024 01/M01 Q1007
  • 270550Z 23008KT 9999 SCT014 BKN019 OVC030 01/M01 Q1008

TAF TAF EDTY
Valid from the 27 at 09:00 until the 27 at 18:00 UTC


270800Z 2709/2718 22008KT 9999 SCT030
BECMG 2713/2715 15008KT 2000 -SN SCT008 BKN012
TEMPO 2714/2718 0700 +SN SCT004 BKN006



MET'MAP, your aeronautical weather chart ! - Copyright ORBIFLY December 2007 - Disclaimer

ORBIFLY MET'MAP TEAM :

Programming & Development : Alexandra Zaïnal
Concept & original design : Baudouin d'Aumeries
Assistance for programming : Marc-Olivier Méhu
Technical & hardware support : Manuel Goepfert

Contact : metmap@orbifly.com




SOURCES & CREDITS :

   NOAA